createdAt,value
2022-11-01T00:02:11.247Z,14.89
2022-11-01T00:07:08.355Z,14.06
2022-11-01T00:12:05.932Z,14.38
2022-11-01T00:17:03.830Z,14.07
2022-11-01T00:22:01.758Z,13.39
2022-11-01T00:26:59.275Z,13.95
2022-11-01T00:31:56.262Z,14.25
2022-11-01T00:36:54.124Z,14.49
2022-11-01T00:41:54.407Z,14.28
2022-11-01T00:46:51.544Z,14.81
2022-11-01T00:51:48.498Z,14.91
2022-11-01T00:56:46.370Z,14.25
2022-11-01T01:01:44.670Z,14.83
2022-11-01T01:06:42.809Z,14.64
2022-11-01T01:11:39.864Z,14.29
2022-11-01T01:16:37.744Z,14.77
2022-11-01T01:21:34.865Z,14.80
2022-11-01T01:26:31.861Z,14.42
2022-11-01T01:31:29.148Z,14.58
2022-11-01T01:36:26.784Z,14.58
2022-11-01T01:41:41.958Z,14.52
2022-11-01T01:46:39.044Z,14.31
2022-11-01T01:51:36.802Z,14.57
2022-11-01T01:56:37.023Z,14.27
2022-11-01T02:01:37.381Z,14.03
2022-11-01T02:06:37.065Z,13.64
2022-11-01T02:11:34.597Z,13.43
2022-11-01T02:16:40.895Z,13.05
2022-11-01T02:21:55.547Z,12.93
2022-11-01T02:27:12.016Z,12.35
2022-11-01T02:32:20.485Z,12.80
2022-11-01T02:37:25.014Z,12.71
2022-11-01T02:42:27.522Z,12.96
2022-11-01T02:47:30.685Z,12.43
2022-11-01T02:52:32.206Z,12.09
2022-11-01T02:57:34.055Z,12.65
2022-11-01T03:02:41.311Z,12.71
2022-11-01T03:07:39.622Z,12.23
2022-11-01T03:12:46.976Z,12.69
2022-11-01T03:17:51.313Z,13.12
2022-11-01T03:22:53.882Z,13.12
2022-11-01T03:27:51.154Z,13.02
2022-11-01T03:32:54.971Z,12.94
2022-11-01T03:37:56.589Z,12.87
2022-11-01T03:42:57.935Z,12.44
2022-11-01T03:47:55.808Z,12.67
2022-11-01T03:52:53.593Z,12.87
2022-11-01T03:57:52.089Z,12.74
2022-11-01T04:02:49.205Z,13.01
2022-11-01T04:07:47.438Z,13.03
2022-11-01T04:12:46.025Z,13.26
2022-11-01T04:18:01.130Z,13.40
2022-11-01T04:23:03.003Z,13.46
2022-11-01T04:28:00.446Z,13.22
2022-11-01T04:33:00.399Z,13.33
2022-11-01T04:37:59.246Z,12.95
2022-11-01T04:42:56.807Z,13.28
2022-11-01T04:48:02.575Z,13.24
2022-11-01T04:53:01.159Z,12.81
2022-11-01T04:57:58.366Z,13.00
2022-11-01T05:03:01.790Z,13.14
2022-11-01T05:08:04.150Z,12.69
2022-11-01T05:13:02.522Z,13.12
2022-11-01T05:18:01.441Z,13.37
2022-11-01T05:22:59.930Z,13.36
2022-11-01T05:28:05.393Z,13.16
2022-11-01T05:33:05.251Z,12.83
2022-11-01T05:38:03.888Z,13.35
2022-11-01T05:43:02.332Z,13.32
2022-11-01T05:48:03.220Z,13.18
2022-11-01T05:53:12.722Z,13.07
2022-11-01T05:58:10.597Z,12.96
2022-11-01T06:03:08.096Z,12.66
2022-11-01T06:08:05.953Z,12.85
2022-11-01T06:13:03.307Z,13.01
2022-11-01T06:18:01.883Z,12.62
2022-11-01T06:22:59.538Z,12.88
2022-11-01T06:27:56.571Z,13.12
2022-11-01T06:32:59.918Z,13.05
2022-11-01T06:38:02.713Z,12.45
2022-11-01T06:43:01.525Z,13.24
2022-11-01T06:47:59.487Z,13.27
2022-11-01T06:53:00.436Z,13.30
2022-11-01T06:58:00.109Z,13.47
2022-11-01T07:03:02.638Z,13.71
2022-11-01T07:08:00.376Z,13.53
2022-11-01T07:12:59.409Z,13.27
2022-11-01T07:17:57.164Z,13.68
2022-11-01T07:22:59.932Z,14.07
2022-11-01T07:27:59.495Z,14.15
2022-11-01T07:32:57.996Z,14.54
2022-11-01T07:37:57.566Z,14.41
2022-11-01T07:42:57.645Z,15.24
2022-11-01T07:48:01.995Z,15.31
2022-11-01T07:53:00.893Z,15.95
2022-11-01T07:57:59.094Z,15.94
2022-11-01T08:03:03.932Z,16.30
2022-11-01T08:08:03.490Z,16.56
2022-11-01T08:13:02.461Z,16.74
2022-11-01T08:18:01.598Z,16.72
2022-11-01T08:23:00.131Z,17.20
2022-11-01T08:28:02.341Z,17.38
2022-11-01T08:33:03.094Z,17.13
2022-11-01T08:38:03.546Z,17.11
2022-11-01T08:43:01.376Z,17.37
2022-11-01T08:47:59.682Z,17.36
2022-11-01T08:52:57.566Z,17.48
2022-11-01T08:57:58.669Z,18.12
2022-11-01T09:02:56.103Z,18.01
2022-11-01T09:07:57.617Z,18.54
2022-11-01T09:12:54.731Z,18.43
2022-11-01T09:17:52.424Z,18.86
2022-11-01T09:22:51.318Z,18.52
2022-11-01T09:27:49.738Z,19.00
2022-11-01T09:32:47.781Z,19.00
2022-11-01T09:37:44.884Z,19.30
2022-11-01T09:42:44.147Z,19.30
2022-11-01T09:47:48.337Z,19.70
2022-11-01T09:52:45.562Z,19.20
2022-11-01T09:57:46.006Z,19.63
2022-11-01T10:03:19.533Z,19.18
2022-11-01T10:08:37.124Z,19.89
2022-11-01T10:13:44.532Z,20.11
2022-11-01T10:18:49.274Z,20.03
2022-11-01T10:23:51.211Z,20.05
2022-11-01T10:28:55.052Z,19.92
2022-11-01T10:34:00.928Z,20.40
2022-11-01T10:44:40.777Z,20.69
2022-11-01T10:50:04.789Z,20.52
2022-11-01T10:55:16.188Z,20.97
2022-11-01T11:00:17.649Z,21.49
2022-11-01T11:05:16.441Z,22.19
2022-11-01T11:10:24.049Z,22.62
2022-11-01T11:15:33.061Z,22.40
2022-11-01T11:20:34.314Z,23.18
2022-11-01T11:25:37.287Z,23.08
2022-11-01T11:30:37.927Z,23.47
2022-11-01T11:35:38.063Z,23.28
2022-11-01T11:40:45.149Z,23.26
2022-11-01T11:45:43.345Z,23.43
2022-11-01T11:50:42.142Z,23.75
2022-11-01T11:55:43.743Z,24.14
2022-11-01T12:00:52.149Z,24.16
2022-11-01T12:05:56.132Z,24.37
2022-11-01T12:10:58.585Z,23.94
2022-11-01T12:16:20.877Z,24.27
2022-11-01T12:21:33.634Z,24.37
2022-11-01T12:26:34.691Z,24.32
2022-11-01T12:31:36.143Z,24.13
2022-11-01T12:36:43.275Z,24.46
2022-11-01T12:41:46.906Z,24.45
2022-11-01T12:46:50.745Z,23.94
2022-11-01T12:51:52.487Z,24.15
2022-11-01T12:56:49.790Z,24.13
2022-11-01T13:02:00.361Z,24.17
2022-11-01T13:07:24.769Z,24.10
2022-11-01T13:12:30.912Z,23.92
2022-11-01T13:17:36.484Z,23.94
2022-11-01T13:22:41.162Z,23.56
2022-11-01T13:27:42.064Z,23.57
2022-11-01T13:32:46.725Z,23.37
2022-11-01T13:37:47.193Z,23.22
2022-11-01T13:42:51.837Z,22.96
2022-11-01T13:47:56.559Z,22.83
2022-11-01T13:52:59.010Z,22.78
2022-11-01T13:57:56.336Z,22.45
2022-11-01T14:02:56.637Z,22.26
2022-11-01T14:08:27.834Z,22.12
2022-11-01T14:13:34.170Z,22.17
2022-11-01T14:19:21.436Z,21.74
2022-11-01T14:24:25.276Z,21.89
2022-11-01T14:29:23.026Z,21.60
2022-11-01T14:34:31.312Z,21.06
2022-11-01T14:39:37.008Z,21.34
2022-11-01T14:44:38.715Z,21.25
2022-11-01T14:49:43.704Z,21.03
2022-11-01T14:54:44.148Z,20.92
2022-11-01T14:59:41.013Z,20.63
2022-11-01T15:04:41.854Z,20.15
2022-11-01T15:09:54.388Z,20.28
2022-11-01T15:14:54.003Z,20.09
2022-11-01T15:19:56.267Z,19.88
2022-11-01T15:24:57.805Z,19.81
2022-11-01T15:29:56.103Z,19.54
2022-11-01T15:34:55.365Z,19.51
2022-11-01T15:39:53.094Z,19.23
2022-11-01T15:44:53.957Z,19.08
2022-11-01T15:50:04.791Z,19.15
2022-11-01T15:55:11.148Z,19.02
2022-11-01T16:00:17.564Z,18.63
2022-11-01T16:05:19.865Z,18.61
2022-11-01T16:10:21.852Z,18.12
2022-11-01T16:15:22.960Z,18.61
2022-11-01T16:20:31.391Z,18.20
2022-11-01T16:25:35.536Z,18.13
2022-11-01T16:30:42.133Z,17.80
2022-11-01T16:35:40.880Z,17.58
2022-11-01T16:40:39.180Z,17.74
2022-11-01T16:45:37.593Z,18.05
2022-11-01T16:50:38.301Z,17.97
2022-11-01T16:55:39.624Z,17.31
2022-11-01T17:00:38.369Z,17.80
2022-11-01T17:05:35.962Z,17.34
2022-11-01T17:10:37.328Z,17.62
2022-11-01T17:15:39.594Z,17.36
2022-11-01T17:20:39.978Z,17.36
2022-11-01T17:25:46.192Z,16.92
2022-11-01T17:30:47.242Z,17.14
2022-11-01T17:35:47.910Z,17.16
2022-11-01T17:40:46.902Z,16.70
2022-11-01T17:45:44.277Z,17.11
2022-11-01T17:50:42.423Z,17.02
2022-11-01T17:55:40.430Z,16.97
2022-11-01T18:00:41.701Z,16.87
2022-11-01T18:05:38.728Z,16.81
2022-11-01T18:10:42.967Z,16.98
2022-11-01T18:16:08.370Z,16.93
2022-11-01T18:21:15.961Z,16.61
2022-11-01T18:26:19.888Z,16.41
2022-11-01T18:31:23.244Z,16.58
2022-11-01T18:36:24.460Z,16.35
2022-11-01T18:41:24.068Z,16.51
2022-11-01T18:46:26.378Z,16.64
2022-11-01T18:51:27.816Z,16.41
2022-11-01T18:56:26.047Z,16.25
2022-11-01T19:01:30.822Z,16.26
2022-11-01T19:06:33.337Z,16.43
2022-11-01T19:11:31.644Z,16.28
2022-11-01T19:16:29.593Z,16.45
2022-11-01T19:21:31.405Z,16.10
2022-11-01T19:26:33.636Z,16.39
2022-11-01T19:31:36.503Z,16.21
2022-11-01T19:41:44.660Z,16.25
2022-11-01T19:46:42.648Z,16.20
2022-11-01T19:51:41.799Z,16.16
2022-11-01T19:56:39.636Z,15.67
2022-11-01T20:01:40.256Z,16.04
2022-11-01T20:06:43.400Z,15.70
2022-11-01T20:11:40.825Z,15.35
2022-11-01T20:16:37.872Z,15.92
2022-11-01T20:21:34.914Z,15.88
2022-11-01T20:26:32.490Z,15.84
2022-11-01T20:31:29.983Z,15.50
2022-11-01T20:36:28.369Z,15.49
2022-11-01T20:41:25.870Z,15.60
2022-11-01T20:46:24.040Z,15.15
2022-11-01T20:51:21.145Z,15.46
2022-11-01T20:56:18.912Z,15.68
2022-11-01T21:01:18.389Z,15.58
2022-11-01T21:06:18.324Z,15.33
2022-11-01T21:11:42.979Z,15.48
2022-11-01T21:16:40.236Z,15.37
2022-11-01T21:21:45.344Z,15.50
2022-11-01T21:26:44.929Z,15.11
2022-11-01T21:31:43.104Z,15.16
2022-11-01T21:36:45.047Z,15.16
2022-11-01T21:41:46.748Z,15.26
2022-11-01T21:46:47.566Z,15.37
2022-11-01T21:51:45.483Z,15.41
2022-11-01T21:56:42.460Z,15.42
2022-11-01T22:01:41.424Z,15.24
2022-11-01T22:06:38.794Z,15.38
2022-11-01T22:11:36.968Z,15.39
2022-11-01T22:16:34.209Z,15.36
2022-11-01T22:21:31.825Z,15.51
2022-11-01T22:26:29.345Z,15.16
2022-11-01T22:31:27.022Z,15.51
2022-11-01T22:36:25.642Z,15.28
2022-11-01T22:41:29.983Z,15.38
2022-11-01T22:46:40.266Z,15.19
2022-11-01T22:51:43.084Z,14.89
2022-11-01T22:56:40.089Z,15.37
2022-11-01T23:01:38.000Z,15.06
2022-11-01T23:06:35.343Z,15.28
2022-11-01T23:11:50.693Z,15.19
2022-11-01T23:16:49.270Z,14.89
2022-11-01T23:21:46.125Z,15.06
2022-11-01T23:26:43.068Z,15.27
2022-11-01T23:31:40.254Z,15.10
2022-11-01T23:36:38.898Z,14.97
2022-11-01T23:41:39.327Z,15.31
2022-11-01T23:46:36.442Z,14.99
2022-11-01T23:51:33.306Z,15.28
2022-11-01T23:56:30.822Z,15.21
